createdAt,value
2022-11-29T00:01:17.291Z,24.35
2022-11-29T00:03:45.287Z,23.33
2022-11-29T00:06:15.889Z,23.98
2022-11-29T00:08:45.249Z,23.15
2022-11-29T00:11:35.159Z,22.77
2022-11-29T00:14:03.232Z,24.55
2022-11-29T00:16:31.663Z,23.08
2022-11-29T00:18:59.558Z,24.13
2022-11-29T00:21:27.493Z,23.40
2022-11-29T00:23:56.789Z,23.42
2022-11-29T00:26:25.181Z,23.52
2022-11-29T00:28:53.303Z,22.73
2022-11-29T00:31:22.741Z,23.38
2022-11-29T00:33:51.336Z,25.55
2022-11-29T00:36:20.408Z,24.23
2022-11-29T00:38:48.317Z,23.27
2022-11-29T00:41:17.677Z,23.13
2022-11-29T00:43:45.764Z,23.88
2022-11-29T00:46:13.847Z,23.98
2022-11-29T00:48:41.957Z,23.95
2022-11-29T00:51:09.849Z,23.63
2022-11-29T00:53:39.291Z,24.83
2022-11-29T00:56:08.460Z,24.48
2022-11-29T00:58:38.404Z,25.40
2022-11-29T01:01:07.140Z,24.10
2022-11-29T01:03:35.129Z,25.67
2022-11-29T01:06:04.849Z,25.20
2022-11-29T01:08:32.949Z,25.52
2022-11-29T01:11:09.545Z,23.90
2022-11-29T01:13:38.998Z,24.60
2022-11-29T01:16:08.044Z,24.85
2022-11-29T01:18:37.115Z,25.80
2022-11-29T01:21:07.214Z,26.17
2022-11-29T01:23:36.477Z,26.83
2022-11-29T01:26:07.308Z,27.05
2022-11-29T01:28:35.728Z,26.73
2022-11-29T01:31:08.781Z,25.75
2022-11-29T01:33:37.010Z,27.45
2022-11-29T01:36:07.317Z,26.25
2022-11-29T01:38:36.243Z,26.17
2022-11-29T01:41:08.379Z,26.60
2022-11-29T01:43:56.638Z,25.13
2022-11-29T01:46:27.090Z,26.45
2022-11-29T01:48:58.645Z,27.67
2022-11-29T01:51:27.936Z,26.05
2022-11-29T01:53:56.484Z,27.90
2022-11-29T01:56:25.674Z,26.73
2022-11-29T01:58:53.662Z,26.83
2022-11-29T02:01:21.558Z,27.75
2022-11-29T02:03:51.090Z,27.02
2022-11-29T02:06:19.486Z,26.65
2022-11-29T02:08:48.084Z,27.02
2022-11-29T02:11:37.294Z,28.42
2022-11-29T02:14:22.736Z,28.25
2022-11-29T02:16:59.037Z,27.08
2022-11-29T02:19:50.744Z,26.70
2022-11-29T02:22:25.552Z,26.15
2022-11-29T02:25:14.229Z,28.13
2022-11-29T02:28:36.793Z,27.65
2022-11-29T02:31:40.142Z,27.58
2022-11-29T02:34:32.114Z,27.85
2022-11-29T02:37:20.453Z,25.55
2022-11-29T02:40:03.229Z,26.17
2022-11-29T02:43:08.482Z,26.55
2022-11-29T02:46:05.351Z,25.83
2022-11-29T02:48:56.941Z,26.90
2022-11-29T02:51:36.418Z,26.70
2022-11-29T02:54:12.101Z,25.30
2022-11-29T02:56:47.832Z,26.52
2022-11-29T02:59:28.758Z,25.13
2022-11-29T03:02:04.236Z,25.30
2022-11-29T03:04:39.796Z,27.65
2022-11-29T03:07:16.668Z,25.33
2022-11-29T03:09:50.262Z,26.73
2022-11-29T03:12:28.512Z,26.38
2022-11-29T03:15:04.078Z,26.45
2022-11-29T03:17:42.014Z,25.27
2022-11-29T03:20:27.032Z,26.02
2022-11-29T03:23:15.105Z,25.15
2022-11-29T03:25:47.217Z,24.75
2022-11-29T03:28:19.859Z,27.13
2022-11-29T03:30:56.449Z,26.23
2022-11-29T03:33:33.030Z,28.35
2022-11-29T03:36:08.706Z,26.42
2022-11-29T03:38:41.631Z,24.67
2022-11-29T03:41:21.246Z,24.45
2022-11-29T03:43:56.182Z,24.17
2022-11-29T03:46:33.472Z,25.75
2022-11-29T03:49:05.122Z,26.25
2022-11-29T03:51:48.023Z,24.33
2022-11-29T03:54:23.713Z,25.05
2022-11-29T03:56:52.263Z,23.77
2022-11-29T03:59:32.813Z,25.35
2022-11-29T04:02:37.263Z,24.98
2022-11-29T04:05:46.079Z,24.35
2022-11-29T04:08:44.083Z,23.40
2022-11-29T04:11:54.949Z,23.55
2022-11-29T04:14:57.709Z,23.75
2022-11-29T04:17:53.945Z,24.25
2022-11-29T04:20:54.482Z,23.83
2022-11-29T04:24:07.149Z,24.75
2022-11-29T04:27:15.280Z,23.92
2022-11-29T04:30:04.871Z,23.90
2022-11-29T04:33:13.872Z,24.27
2022-11-29T04:35:57.145Z,24.63
2022-11-29T04:38:50.454Z,23.02
2022-11-29T04:41:59.299Z,23.90
2022-11-29T04:44:55.637Z,24.92
2022-11-29T04:47:43.732Z,23.25
2022-11-29T04:50:24.170Z,22.95
2022-11-29T04:53:21.774Z,25.02
2022-11-29T04:55:57.905Z,24.63
2022-11-29T04:58:36.311Z,24.80
2022-11-29T05:01:15.978Z,25.13
2022-11-29T05:03:56.747Z,24.83
2022-11-29T05:06:30.397Z,24.27
2022-11-29T05:09:08.168Z,24.65
2022-11-29T05:11:50.698Z,23.60
2022-11-29T05:14:32.548Z,24.20
2022-11-29T05:17:20.252Z,24.52
2022-11-29T05:20:02.405Z,24.45
2022-11-29T05:22:37.127Z,23.83
2022-11-29T05:25:26.292Z,23.80
2022-11-29T05:27:59.195Z,22.67
2022-11-29T05:30:41.665Z,22.85
2022-11-29T05:33:23.356Z,21.88
2022-11-29T05:35:55.857Z,23.23
2022-11-29T05:38:56.614Z,23.75
2022-11-29T05:41:42.616Z,23.45
2022-11-29T05:44:16.147Z,22.73
2022-11-29T05:46:55.262Z,23.10
2022-11-29T05:49:34.634Z,23.58
2022-11-29T05:52:19.397Z,22.77
2022-11-29T05:55:00.126Z,23.48
2022-11-29T05:57:37.387Z,22.35
2022-11-29T06:00:07.777Z,24.55
2022-11-29T06:02:50.115Z,22.55
2022-11-29T06:05:27.132Z,22.92
2022-11-29T06:08:00.362Z,23.92
2022-11-29T06:10:32.992Z,22.33
2022-11-29T06:13:12.723Z,24.20
2022-11-29T06:16:17.452Z,23.35
2022-11-29T06:19:20.905Z,23.63
2022-11-29T06:21:59.476Z,23.17
2022-11-29T06:24:46.567Z,22.63
2022-11-29T06:27:41.855Z,23.48
2022-11-29T06:30:12.403Z,24.23
2022-11-29T06:32:50.551Z,23.25
2022-11-29T06:35:36.944Z,23.73
2022-11-29T06:38:10.857Z,23.13
2022-11-29T06:40:39.302Z,23.73
2022-11-29T06:43:07.765Z,22.92
2022-11-29T06:45:36.159Z,22.70
2022-11-29T06:48:06.111Z,23.73
2022-11-29T06:50:47.632Z,22.70
2022-11-29T06:53:23.562Z,23.40
2022-11-29T06:55:59.869Z,23.80
2022-11-29T06:58:43.980Z,22.38
2022-11-29T07:01:20.695Z,23.42
2022-11-29T07:04:06.836Z,23.42
2022-11-29T07:06:37.262Z,23.15
2022-11-29T07:09:14.407Z,22.23
2022-11-29T07:11:42.855Z,23.08
2022-11-29T07:14:11.176Z,23.55
2022-11-29T07:16:53.159Z,22.70
2022-11-29T07:19:35.108Z,23.15
2022-11-29T07:22:10.311Z,23.13
2022-11-29T07:24:52.107Z,22.23
2022-11-29T07:27:24.907Z,22.40
2022-11-29T07:30:07.721Z,22.35
2022-11-29T07:32:51.440Z,22.95
2022-11-29T07:35:31.412Z,24.15
2022-11-29T07:38:11.108Z,23.30
2022-11-29T07:40:47.276Z,22.70
2022-11-29T07:43:26.140Z,22.05
2022-11-29T07:45:54.979Z,22.10
2022-11-29T07:48:22.827Z,24.08
2022-11-29T07:50:50.946Z,23.05
2022-11-29T07:53:22.908Z,23.10
2022-11-29T07:55:51.362Z,21.52
2022-11-29T07:58:21.065Z,24.30
2022-11-29T08:00:49.059Z,22.42
2022-11-29T08:03:16.903Z,22.77
2022-11-29T08:05:48.137Z,21.58
2022-11-29T08:08:16.658Z,22.60
2022-11-29T08:10:46.605Z,22.58
2022-11-29T08:13:15.693Z,22.77
2022-11-29T08:15:46.991Z,22.90
2022-11-29T08:18:15.285Z,23.23
2022-11-29T08:20:43.728Z,20.83
2022-11-29T08:23:13.816Z,22.15
2022-11-29T08:25:41.848Z,20.98
2022-11-29T08:28:11.183Z,22.48
2022-11-29T08:30:39.594Z,20.67
2022-11-29T08:33:07.659Z,21.15
2022-11-29T08:35:36.909Z,21.30
2022-11-29T08:38:05.107Z,21.45
2022-11-29T08:40:33.257Z,21.20
2022-11-29T08:43:01.146Z,21.23
2022-11-29T08:45:30.474Z,21.50
2022-11-29T08:47:58.354Z,21.45
2022-11-29T08:50:26.217Z,20.83
2022-11-29T08:53:11.710Z,20.85
2022-11-29T08:55:42.873Z,19.48
2022-11-29T08:58:13.638Z,22.58
2022-11-29T09:00:45.570Z,20.40
2022-11-29T09:03:31.068Z,20.70
2022-11-29T09:06:00.405Z,21.10
2022-11-29T09:08:28.256Z,19.73
2022-11-29T09:10:56.105Z,20.13
2022-11-29T09:13:23.934Z,19.50
2022-11-29T09:15:53.169Z,19.90
2022-11-29T09:18:22.733Z,20.55
2022-11-29T09:20:50.669Z,19.90
2022-11-29T09:23:18.525Z,19.80
2022-11-29T09:25:49.756Z,20.90
2022-11-29T09:28:17.683Z,21.52
2022-11-29T09:30:45.693Z,19.52
2022-11-29T09:33:14.924Z,19.73
2022-11-29T09:35:42.969Z,19.85
2022-11-29T09:38:12.254Z,20.98
2022-11-29T09:40:46.691Z,20.10
2022-11-29T09:43:25.124Z,19.17
2022-11-29T09:46:01.566Z,20.50
2022-11-29T09:48:43.882Z,20.30
2022-11-29T09:51:22.530Z,20.23
2022-11-29T09:54:07.563Z,20.10
2022-11-29T09:56:39.842Z,20.60
2022-11-29T09:59:12.902Z,19.58
2022-11-29T10:01:45.196Z,20.73
2022-11-29T10:04:18.664Z,19.83
2022-11-29T10:06:53.090Z,20.60
2022-11-29T10:09:29.566Z,20.98
2022-11-29T10:12:08.386Z,20.48
2022-11-29T10:14:45.416Z,20.15
2022-11-29T10:17:26.102Z,20.05
2022-11-29T10:19:59.816Z,20.48
2022-11-29T10:22:37.695Z,20.15
2022-11-29T10:25:10.382Z,20.02
2022-11-29T10:27:41.636Z,20.25
2022-11-29T10:30:15.085Z,20.00
2022-11-29T10:32:45.501Z,19.02
2022-11-29T10:35:18.289Z,19.35
2022-11-29T10:38:07.619Z,19.77
2022-11-29T10:40:37.201Z,18.75
2022-11-29T10:43:05.330Z,18.48
2022-11-29T10:45:37.780Z,19.40
2022-11-29T10:48:09.155Z,19.40
2022-11-29T10:50:42.755Z,18.90
2022-11-29T10:53:13.393Z,18.60
2022-11-29T10:55:45.225Z,19.52
2022-11-29T10:58:22.091Z,19.15
2022-11-29T11:00:56.711Z,19.05
2022-11-29T11:03:30.462Z,18.45
2022-11-29T11:06:07.597Z,18.35
2022-11-29T11:08:36.981Z,19.15
2022-11-29T11:11:07.758Z,18.27
2022-11-29T11:13:37.543Z,19.55
2022-11-29T11:16:17.842Z,19.77
2022-11-29T11:18:47.038Z,19.35
2022-11-29T11:21:19.177Z,19.80
2022-11-29T11:23:54.235Z,18.85
2022-11-29T11:26:22.899Z,18.65
2022-11-29T11:28:54.586Z,20.17
2022-11-29T11:31:32.785Z,18.45
2022-11-29T11:34:25.396Z,18.08
2022-11-29T11:36:55.111Z,19.67
2022-11-29T11:39:24.489Z,18.85
2022-11-29T11:42:10.899Z,19.10
2022-11-29T11:44:49.328Z,18.42
2022-11-29T11:47:20.633Z,19.70
2022-11-29T11:49:51.612Z,19.55
2022-11-29T11:52:24.155Z,19.48
2022-11-29T11:54:55.666Z,17.52
2022-11-29T11:57:25.894Z,19.90
2022-11-29T11:59:55.616Z,19.20
2022-11-29T12:02:29.106Z,18.83
2022-11-29T12:05:00.013Z,19.52
2022-11-29T12:08:06.329Z,19.48
2022-11-29T12:10:25.782Z,20.55
2022-11-29T12:12:55.998Z,20.23
2022-11-29T12:15:29.567Z,19.73
2022-11-29T12:18:03.022Z,19.73
2022-11-29T12:20:35.076Z,19.80
2022-11-29T12:23:23.067Z,19.13
2022-11-29T12:25:55.840Z,20.88
2022-11-29T12:28:28.314Z,21.83
2022-11-29T12:31:16.337Z,21.35
2022-11-29T12:33:50.889Z,21.52
2022-11-29T12:36:30.045Z,20.70
2022-11-29T12:39:22.659Z,20.77
2022-11-29T12:41:57.312Z,22.23
2022-11-29T12:44:40.916Z,21.58
2022-11-29T12:47:37.711Z,20.80
2022-11-29T12:50:21.719Z,21.42
2022-11-29T12:53:02.330Z,21.95
2022-11-29T12:55:42.562Z,22.52
2022-11-29T12:58:16.490Z,22.23
2022-11-29T13:01:01.851Z,21.63
2022-11-29T13:03:34.017Z,21.42
2022-11-29T13:06:15.888Z,20.65
2022-11-29T13:08:59.180Z,19.88
2022-11-29T13:11:31.573Z,20.23
2022-11-29T13:14:34.778Z,21.92
2022-11-29T13:17:00.050Z,21.30
2022-11-29T13:19:34.664Z,22.00
2022-11-29T13:22:11.501Z,21.63
2022-11-29T13:24:44.176Z,21.40
2022-11-29T13:27:19.513Z,23.10
2022-11-29T13:29:48.127Z,21.98
2022-11-29T13:32:29.120Z,23.98
2022-11-29T13:35:01.991Z,22.08
2022-11-29T13:37:36.903Z,22.58
2022-11-29T13:40:22.869Z,23.40
2022-11-29T13:43:02.381Z,22.23
2022-11-29T13:45:38.234Z,23.33
2022-11-29T13:48:34.911Z,21.88
2022-11-29T13:51:41.437Z,23.70
2022-11-29T13:54:29.376Z,23.25
2022-11-29T13:57:09.091Z,22.45
2022-11-29T13:59:47.299Z,24.58
2022-11-29T14:02:29.697Z,23.83
2022-11-29T14:04:57.761Z,25.95
2022-11-29T14:07:25.696Z,25.42
2022-11-29T14:10:00.314Z,25.75
2022-11-29T14:12:39.529Z,25.55
2022-11-29T14:15:24.126Z,26.05
2022-11-29T14:17:55.160Z,24.05
2022-11-29T14:20:57.018Z,24.48
2022-11-29T14:23:42.064Z,25.80
2022-11-29T14:26:30.581Z,26.92
2022-11-29T14:28:59.638Z,24.92
2022-11-29T14:31:52.455Z,24.20
2022-11-29T14:34:33.477Z,25.25
2022-11-29T14:37:15.593Z,24.45
2022-11-29T14:39:47.042Z,24.60
2022-11-29T14:42:18.768Z,25.08
2022-11-29T14:44:52.938Z,26.42
2022-11-29T14:47:31.451Z,25.13
2022-11-29T14:50:03.855Z,25.80
2022-11-29T14:52:37.107Z,27.08
2022-11-29T14:55:09.329Z,27.35
2022-11-29T14:58:16.818Z,26.17
2022-11-29T15:01:10.881Z,26.50
2022-11-29T15:03:50.766Z,26.95
2022-11-29T15:06:26.380Z,25.42
2022-11-29T15:09:00.512Z,26.48
2022-11-29T15:11:36.998Z,26.13
2022-11-29T15:14:08.011Z,26.42
2022-11-29T15:17:12.375Z,26.60
2022-11-29T15:20:17.879Z,25.90
2022-11-29T15:22:52.372Z,25.67
2022-11-29T15:25:22.427Z,26.33
2022-11-29T15:27:54.674Z,26.55
2022-11-29T15:30:30.771Z,28.08
2022-11-29T15:33:00.099Z,27.42
2022-11-29T15:35:29.767Z,28.73
2022-11-29T15:37:58.085Z,29.38
2022-11-29T15:40:34.451Z,29.35
2022-11-29T15:43:14.869Z,28.35
2022-11-29T15:45:48.257Z,29.38
2022-11-29T15:48:22.209Z,27.73
2022-11-29T15:51:12.304Z,28.05
2022-11-29T15:53:47.175Z,28.55
2022-11-29T15:56:20.162Z,29.50
2022-11-29T15:58:51.075Z,29.85
2022-11-29T16:01:22.378Z,30.50
2022-11-29T16:03:53.435Z,30.13
2022-11-29T16:06:29.880Z,29.80
2022-11-29T16:08:57.978Z,29.42
2022-11-29T16:11:29.131Z,31.67
2022-11-29T16:14:05.331Z,30.13
2022-11-29T16:16:35.649Z,30.50
2022-11-29T16:19:11.915Z,31.83
2022-11-29T16:21:44.622Z,29.92
2022-11-29T16:24:14.660Z,28.33
2022-11-29T16:26:45.123Z,29.42
2022-11-29T16:29:24.461Z,29.98
2022-11-29T16:31:53.481Z,28.95
2022-11-29T16:34:27.563Z,29.13
2022-11-29T16:37:05.640Z,28.77
2022-11-29T16:39:35.155Z,29.35
2022-11-29T16:42:08.089Z,27.95
2022-11-29T16:45:27.775Z,28.23
2022-11-29T16:47:58.990Z,29.60
2022-11-29T16:50:29.558Z,28.15
2022-11-29T16:53:35.278Z,28.85
2022-11-29T16:56:03.339Z,27.27
2022-11-29T16:58:31.681Z,29.95
2022-11-29T17:00:59.742Z,28.08
2022-11-29T17:03:27.658Z,28.98
2022-11-29T17:05:55.516Z,28.55
2022-11-29T17:08:24.808Z,29.35
2022-11-29T17:10:52.646Z,29.00
2022-11-29T17:13:20.503Z,29.15
2022-11-29T17:15:48.390Z,29.15
2022-11-29T17:18:16.394Z,28.45
2022-11-29T17:20:44.235Z,26.80
2022-11-29T17:23:13.530Z,27.63
2022-11-29T17:25:42.794Z,28.77
2022-11-29T17:28:11.140Z,28.50
2022-11-29T17:30:39.038Z,26.45
2022-11-29T17:33:06.864Z,27.52
2022-11-29T17:35:36.318Z,27.58
2022-11-29T17:38:04.341Z,27.75
2022-11-29T17:40:32.209Z,27.90
2022-11-29T17:43:01.533Z,28.45
2022-11-29T17:45:29.359Z,29.73
2022-11-29T17:47:59.656Z,27.77
2022-11-29T17:50:27.535Z,27.10
2022-11-29T17:52:55.396Z,27.83
2022-11-29T17:55:26.965Z,27.33
2022-11-29T17:57:57.322Z,29.88
2022-11-29T18:00:27.080Z,28.58
2022-11-29T18:02:54.948Z,28.60
2022-11-29T18:05:23.058Z,28.40
2022-11-29T18:08:00.153Z,26.95
2022-11-29T18:10:29.222Z,28.10
2022-11-29T18:12:57.576Z,28.95
2022-11-29T18:15:26.854Z,28.75
2022-11-29T18:17:55.014Z,27.65
2022-11-29T18:20:22.855Z,27.05
2022-11-29T18:22:50.721Z,27.00
2022-11-29T18:25:38.302Z,28.20
2022-11-29T18:28:08.679Z,27.80
2022-11-29T18:30:38.009Z,29.13
2022-11-29T18:33:05.928Z,29.33
2022-11-29T18:35:33.758Z,27.20
2022-11-29T18:38:16.981Z,28.30
2022-11-29T18:40:46.232Z,27.58
2022-11-29T18:43:16.556Z,27.80
2022-11-29T18:45:45.842Z,27.58
2022-11-29T18:48:13.908Z,27.38
2022-11-29T18:50:41.763Z,28.67
2022-11-29T18:53:09.577Z,27.00
2022-11-29T18:55:37.414Z,29.48
2022-11-29T18:58:06.666Z,29.38
2022-11-29T19:00:34.628Z,27.13
2022-11-29T19:03:03.909Z,27.58
2022-11-29T19:05:31.772Z,29.58
2022-11-29T19:07:59.689Z,26.95
2022-11-29T19:10:27.571Z,28.02
2022-11-29T19:12:55.737Z,26.50
2022-11-29T19:15:23.578Z,27.95
2022-11-29T19:17:51.460Z,28.13
2022-11-29T19:20:20.712Z,28.25
2022-11-29T19:22:48.906Z,27.85
2022-11-29T19:25:16.914Z,25.88
2022-11-29T19:27:45.390Z,26.30
2022-11-29T19:30:15.499Z,27.52
2022-11-29T19:32:43.837Z,26.67
2022-11-29T19:35:11.656Z,25.90
2022-11-29T19:37:42.040Z,27.75
2022-11-29T19:40:10.355Z,27.63
2022-11-29T19:42:38.183Z,26.60
2022-11-29T19:45:16.861Z,25.30
2022-11-29T19:47:45.776Z,25.98
2022-11-29T19:50:13.598Z,24.88
2022-11-29T19:52:42.980Z,27.33
2022-11-29T19:55:11.087Z,27.77
2022-11-29T19:57:39.495Z,26.48
2022-11-29T20:00:08.613Z,26.90
2022-11-29T20:02:36.546Z,26.83
2022-11-29T20:05:04.538Z,25.95
2022-11-29T20:07:32.452Z,26.08
2022-11-29T20:10:01.730Z,26.08
2022-11-29T20:12:32.321Z,25.73
2022-11-29T20:15:01.015Z,25.05
2022-11-29T20:17:29.082Z,25.73
2022-11-29T20:19:57.063Z,25.42
2022-11-29T20:22:24.936Z,25.70
2022-11-29T20:24:54.423Z,25.65
2022-11-29T20:27:23.910Z,25.95
2022-11-29T20:29:51.841Z,26.45
2022-11-29T20:32:20.316Z,27.17
2022-11-29T20:34:49.028Z,25.20
2022-11-29T20:37:39.457Z,24.98
2022-11-29T20:40:12.721Z,25.98
2022-11-29T20:42:51.523Z,27.20
2022-11-29T20:45:20.072Z,24.38
2022-11-29T20:47:54.974Z,23.65
2022-11-29T20:50:25.203Z,24.88
2022-11-29T20:53:13.822Z,24.42
2022-11-29T20:55:47.746Z,26.08
2022-11-29T20:58:19.475Z,25.17
2022-11-29T21:00:47.864Z,24.55
2022-11-29T21:03:16.259Z,24.80
2022-11-29T21:05:44.898Z,23.70
2022-11-29T21:08:13.482Z,26.13
2022-11-29T21:10:41.449Z,22.73
2022-11-29T21:13:12.425Z,24.15
2022-11-29T21:15:42.414Z,23.95
2022-11-29T21:18:20.943Z,23.52
2022-11-29T21:20:58.423Z,23.23
2022-11-29T21:23:35.586Z,23.67
2022-11-29T21:26:09.439Z,22.65
2022-11-29T21:28:42.764Z,24.33
2022-11-29T21:31:17.735Z,23.48
2022-11-29T21:33:46.186Z,21.63
2022-11-29T21:36:14.673Z,22.92
2022-11-29T21:38:42.769Z,22.98
2022-11-29T21:41:10.608Z,20.95
2022-11-29T21:44:04.877Z,21.85
2022-11-29T21:46:27.709Z,23.23
2022-11-29T21:48:55.658Z,23.30
2022-11-29T21:51:23.593Z,24.08
2022-11-29T21:53:51.582Z,24.25
2022-11-29T21:56:19.621Z,22.38
2022-11-29T21:58:47.444Z,23.48
2022-11-29T22:01:18.043Z,23.02
2022-11-29T22:03:47.763Z,22.65
2022-11-29T22:06:18.311Z,21.45
2022-11-29T22:08:46.292Z,21.40
2022-11-29T22:11:16.445Z,21.23
2022-11-29T22:13:59.395Z,22.23
2022-11-29T22:16:27.622Z,20.60
2022-11-29T22:18:57.020Z,21.38
2022-11-29T22:21:24.885Z,21.50
2022-11-29T22:23:53.498Z,21.95
2022-11-29T22:26:21.425Z,21.67
2022-11-29T22:28:49.376Z,22.23
2022-11-29T22:31:17.287Z,22.00
2022-11-29T22:33:45.132Z,21.00
2022-11-29T22:36:14.556Z,20.65
2022-11-29T22:38:42.412Z,20.77
2022-11-29T22:41:12.958Z,21.48
2022-11-29T22:43:42.106Z,19.60
2022-11-29T22:46:11.796Z,19.80
2022-11-29T22:48:40.834Z,21.38
2022-11-29T22:51:10.298Z,21.92
2022-11-29T22:53:41.843Z,22.05
2022-11-29T22:56:11.990Z,19.67
2022-11-29T22:58:40.029Z,21.60
2022-11-29T23:01:10.638Z,21.13
2022-11-29T23:03:40.071Z,22.73
2022-11-29T23:06:09.621Z,23.20
2022-11-29T23:08:39.778Z,22.70
2022-11-29T23:11:09.290Z,22.92
2022-11-29T23:13:39.437Z,22.30
2022-11-29T23:16:10.688Z,22.25
2022-11-29T23:18:39.996Z,22.33
2022-11-29T23:21:10.078Z,22.65
2022-11-29T23:23:39.395Z,23.13
2022-11-29T23:26:08.726Z,21.80
2022-11-29T23:28:37.277Z,22.60
2022-11-29T23:31:05.135Z,22.63
2022-11-29T23:33:33.015Z,22.33
2022-11-29T23:36:02.531Z,22.33
2022-11-29T23:38:30.469Z,23.08
2022-11-29T23:41:00.019Z,22.65
2022-11-29T23:43:30.551Z,20.85
2022-11-29T23:45:58.496Z,21.80
2022-11-29T23:48:27.027Z,22.35
2022-11-29T23:50:54.928Z,20.95
2022-11-29T23:53:22.998Z,22.73
2022-11-29T23:55:57.513Z,22.13
2022-11-29T23:58:27.360Z,21.33
